sensor_id;sensor_type;location;lat;lon;timestamp;P1;durP1;ratioP1;P2;durP2;ratioP2
29092;SDS011;16167;48.768;14.984;2022-10-17T00:03:30;86.45;;;51.47;;
29092;SDS011;16167;48.768;14.984;2022-10-17T00:06:03;77.13;;;49.83;;
29092;SDS011;16167;48.768;14.984;2022-10-17T00:08:32;113.57;;;53.17;;
29092;SDS011;16167;48.768;14.984;2022-10-17T00:11:01;89.85;;;52.63;;
29092;SDS011;16167;48.768;14.984;2022-10-17T00:13:33;91.97;;;49.55;;
29092;SDS011;16167;48.768;14.984;2022-10-17T00:16:01;134.70;;;54.55;;
29092;SDS011;16167;48.768;14.984;2022-10-17T00:18:29;107.90;;;50.13;;
29092;SDS011;16167;48.768;14.984;2022-10-17T00:20:57;112.80;;;50.53;;
29092;SDS011;16167;48.768;14.984;2022-10-17T00:23:26;130.35;;;56.15;;
29092;SDS011;16167;48.768;14.984;2022-10-17T00:25:58;90.18;;;50.03;;
29092;SDS011;16167;48.768;14.984;2022-10-17T00:28:27;131.55;;;52.53;;
29092;SDS011;16167;48.768;14.984;2022-10-17T00:30:58;104.50;;;48.35;;
29092;SDS011;16167;48.768;14.984;2022-10-17T00:33:27;100.10;;;47.90;;
29092;SDS011;16167;48.768;14.984;2022-10-17T00:36:05;92.53;;;48.65;;
29092;SDS011;16167;48.768;14.984;2022-10-17T00:38:35;78.20;;;45.33;;
29092;SDS011;16167;48.768;14.984;2022-10-17T00:41:04;68.13;;;42.63;;
29092;SDS011;16167;48.768;14.984;2022-10-17T00:43:47;73.32;;;43.55;;
29092;SDS011;16167;48.768;14.984;2022-10-17T00:46:22;65.78;;;42.25;;
29092;SDS011;16167;48.768;14.984;2022-10-17T00:48:55;69.78;;;43.10;;
29092;SDS011;16167;48.768;14.984;2022-10-17T00:51:27;69.10;;;42.60;;
29092;SDS011;16167;48.768;14.984;2022-10-17T00:53:59;91.32;;;45.42;;
29092;SDS011;16167;48.768;14.984;2022-10-17T00:56:29;84.72;;;44.28;;
29092;SDS011;16167;48.768;14.984;2022-10-17T00:58:58;72.70;;;44.00;;
29092;SDS011;16167;48.768;14.984;2022-10-17T01:01:27;69.43;;;42.08;;
29092;SDS011;16167;48.768;14.984;2022-10-17T01:03:56;64.07;;;40.58;;
29092;SDS011;16167;48.768;14.984;2022-10-17T01:06:25;99.35;;;44.67;;
29092;SDS011;16167;48.768;14.984;2022-10-17T01:08:53;92.43;;;44.92;;
29092;SDS011;16167;48.768;14.984;2022-10-17T01:11:26;69.20;;;41.95;;
29092;SDS011;16167;48.768;14.984;2022-10-17T01:14:02;81.60;;;44.53;;
29092;SDS011;16167;48.768;14.984;2022-10-17T01:16:40;64.05;;;42.47;;
29092;SDS011;16167;48.768;14.984;2022-10-17T01:22:13;73.60;;;41.17;;
29092;SDS011;16167;48.768;14.984;2022-10-17T01:24:47;99.70;;;42.03;;
29092;SDS011;16167;48.768;14.984;2022-10-17T01:27:35;97.65;;;42.55;;
29092;SDS011;16167;48.768;14.984;2022-10-17T01:30:18;92.45;;;45.10;;
29092;SDS011;16167;48.768;14.984;2022-10-17T01:33:11;73.80;;;42.03;;
29092;SDS011;16167;48.768;14.984;2022-10-17T01:35:47;100.97;;;43.22;;
29092;SDS011;16167;48.768;14.984;2022-10-17T01:38:22;62.92;;;42.17;;
29092;SDS011;16167;48.768;14.984;2022-10-17T01:40:54;67.65;;;41.47;;
29092;SDS011;16167;48.768;14.984;2022-10-17T01:43:28;63.72;;;42.00;;
29092;SDS011;16167;48.768;14.984;2022-10-17T01:46:02;67.78;;;40.92;;
29092;SDS011;16167;48.768;14.984;2022-10-17T01:48:36;81.90;;;41.58;;
29092;SDS011;16167;48.768;14.984;2022-10-17T01:51:07;59.72;;;39.47;;
29092;SDS011;16167;48.768;14.984;2022-10-17T01:53:40;60.45;;;40.33;;
29092;SDS011;16167;48.768;14.984;2022-10-17T01:56:13;74.53;;;41.05;;
29092;SDS011;16167;48.768;14.984;2022-10-17T01:58:43;60.30;;;40.40;;
29092;SDS011;16167;48.768;14.984;2022-10-17T02:01:16;64.95;;;42.88;;
29092;SDS011;16167;48.768;14.984;2022-10-17T02:03:46;69.60;;;42.40;;
29092;SDS011;16167;48.768;14.984;2022-10-17T02:06:17;103.00;;;48.22;;
29092;SDS011;16167;48.768;14.984;2022-10-17T02:08:46;116.45;;;45.88;;
29092;SDS011;16167;48.768;14.984;2022-10-17T02:11:16;80.00;;;46.40;;
29092;SDS011;16167;48.768;14.984;2022-10-17T02:13:53;66.03;;;42.33;;
29092;SDS011;16167;48.768;14.984;2022-10-17T02:16:42;91.18;;;46.38;;
29092;SDS011;16167;48.768;14.984;2022-10-17T02:19:19;101.13;;;47.00;;
29092;SDS011;16167;48.768;14.984;2022-10-17T02:22:04;99.50;;;48.67;;
29092;SDS011;16167;48.768;14.984;2022-10-17T02:24:44;85.00;;;48.10;;
29092;SDS011;16167;48.768;14.984;2022-10-17T02:27:18;74.25;;;43.03;;
29092;SDS011;16167;48.768;14.984;2022-10-17T02:29:59;75.22;;;43.00;;
29092;SDS011;16167;48.768;14.984;2022-10-17T02:32:35;82.15;;;46.70;;
29092;SDS011;16167;48.768;14.984;2022-10-17T02:35:15;88.63;;;49.53;;
29092;SDS011;16167;48.768;14.984;2022-10-17T02:37:46;79.53;;;47.60;;
29092;SDS011;16167;48.768;14.984;2022-10-17T02:40:15;127.72;;;48.70;;
29092;SDS011;16167;48.768;14.984;2022-10-17T02:42:47;99.22;;;48.55;;
29092;SDS011;16167;48.768;14.984;2022-10-17T02:45:17;83.70;;;47.15;;
29092;SDS011;16167;48.768;14.984;2022-10-17T02:47:49;122.10;;;48.42;;
29092;SDS011;16167;48.768;14.984;2022-10-17T02:50:24;87.18;;;47.78;;
29092;SDS011;16167;48.768;14.984;2022-10-17T02:52:59;128.65;;;49.25;;
29092;SDS011;16167;48.768;14.984;2022-10-17T02:55:32;82.90;;;46.38;;
29092;SDS011;16167;48.768;14.984;2022-10-17T02:58:05;90.07;;;50.45;;
29092;SDS011;16167;48.768;14.984;2022-10-17T03:00:37;91.65;;;44.45;;
29092;SDS011;16167;48.768;14.984;2022-10-17T03:03:18;78.93;;;44.20;;
29092;SDS011;16167;48.768;14.984;2022-10-17T03:05:47;96.70;;;46.83;;
29092;SDS011;16167;48.768;14.984;2022-10-17T03:08:16;82.60;;;44.55;;
29092;SDS011;16167;48.768;14.984;2022-10-17T03:10:44;104.63;;;45.97;;
29092;SDS011;16167;48.768;14.984;2022-10-17T03:13:12;84.38;;;46.85;;
29092;SDS011;16167;48.768;14.984;2022-10-17T03:15:40;66.30;;;42.72;;
29092;SDS011;16167;48.768;14.984;2022-10-17T03:18:08;109.40;;;48.15;;
29092;SDS011;16167;48.768;14.984;2022-10-17T03:20:38;99.65;;;48.20;;
29092;SDS011;16167;48.768;14.984;2022-10-17T03:23:06;104.15;;;50.80;;
29092;SDS011;16167;48.768;14.984;2022-10-17T03:25:34;74.15;;;44.25;;
29092;SDS011;16167;48.768;14.984;2022-10-17T03:28:03;81.80;;;47.97;;
29092;SDS011;16167;48.768;14.984;2022-10-17T03:30:31;102.13;;;49.63;;
29092;SDS011;16167;48.768;14.984;2022-10-17T03:33:00;73.43;;;43.55;;
29092;SDS011;16167;48.768;14.984;2022-10-17T03:35:28;86.50;;;46.13;;
29092;SDS011;16167;48.768;14.984;2022-10-17T03:37:58;111.88;;;48.45;;
29092;SDS011;16167;48.768;14.984;2022-10-17T03:40:26;98.85;;;46.75;;
29092;SDS011;16167;48.768;14.984;2022-10-17T03:42:54;74.95;;;48.15;;
29092;SDS011;16167;48.768;14.984;2022-10-17T03:45:22;93.95;;;47.88;;
29092;SDS011;16167;48.768;14.984;2022-10-17T03:47:50;73.07;;;45.03;;
29092;SDS011;16167;48.768;14.984;2022-10-17T03:50:19;73.25;;;46.17;;
29092;SDS011;16167;48.768;14.984;2022-10-17T03:52:47;95.05;;;47.90;;
29092;SDS011;16167;48.768;14.984;2022-10-17T03:55:17;80.22;;;45.35;;
29092;SDS011;16167;48.768;14.984;2022-10-17T03:57:45;88.55;;;48.20;;
29092;SDS011;16167;48.768;14.984;2022-10-17T04:00:13;99.88;;;48.20;;
29092;SDS011;16167;48.768;14.984;2022-10-17T04:02:42;99.70;;;53.33;;
29092;SDS011;16167;48.768;14.984;2022-10-17T04:05:10;87.03;;;46.60;;
29092;SDS011;16167;48.768;14.984;2022-10-17T04:07:39;96.20;;;50.30;;
29092;SDS011;16167;48.768;14.984;2022-10-17T04:10:07;102.63;;;49.92;;
29092;SDS011;16167;48.768;14.984;2022-10-17T04:12:37;107.50;;;53.45;;
29092;SDS011;16167;48.768;14.984;2022-10-17T04:15:06;87.68;;;48.20;;
29092;SDS011;16167;48.768;14.984;2022-10-17T04:17:35;103.28;;;51.17;;
29092;SDS011;16167;48.768;14.984;2022-10-17T04:20:04;105.20;;;50.23;;
29092;SDS011;16167;48.768;14.984;2022-10-17T04:22:32;67.93;;;42.15;;
29092;SDS011;16167;48.768;14.984;2022-10-17T04:25:00;100.30;;;48.80;;
29092;SDS011;16167;48.768;14.984;2022-10-17T04:27:29;93.78;;;47.75;;
29092;SDS011;16167;48.768;14.984;2022-10-17T04:29:59;101.32;;;50.42;;
29092;SDS011;16167;48.768;14.984;2022-10-17T04:34:55;85.88;;;44.05;;
29092;SDS011;16167;48.768;14.984;2022-10-17T04:37:23;88.82;;;45.83;;
29092;SDS011;16167;48.768;14.984;2022-10-17T04:39:51;81.15;;;45.10;;
29092;SDS011;16167;48.768;14.984;2022-10-17T04:42:20;92.05;;;49.30;;
29092;SDS011;16167;48.768;14.984;2022-10-17T04:44:48;115.13;;;48.10;;
29092;SDS011;16167;48.768;14.984;2022-10-17T04:47:17;95.43;;;47.83;;
29092;SDS011;16167;48.768;14.984;2022-10-17T04:52:14;100.00;;;48.03;;
29092;SDS011;16167;48.768;14.984;2022-10-17T04:54:42;87.78;;;48.05;;
29092;SDS011;16167;48.768;14.984;2022-10-17T04:57:10;109.57;;;48.97;;
29092;SDS011;16167;48.768;14.984;2022-10-17T04:59:38;85.60;;;47.58;;
29092;SDS011;16167;48.768;14.984;2022-10-17T05:02:07;87.97;;;47.72;;
29092;SDS011;16167;48.768;14.984;2022-10-17T05:04:36;81.57;;;45.33;;
29092;SDS011;16167;48.768;14.984;2022-10-17T05:09:32;81.00;;;44.45;;
29092;SDS011;16167;48.768;14.984;2022-10-17T05:12:00;77.40;;;46.95;;
29092;SDS011;16167;48.768;14.984;2022-10-17T05:14:33;77.63;;;47.00;;
29092;SDS011;16167;48.768;14.984;2022-10-17T05:17:01;82.38;;;47.58;;
29092;SDS011;16167;48.768;14.984;2022-10-17T05:19:29;80.38;;;46.20;;
29092;SDS011;16167;48.768;14.984;2022-10-17T05:21:58;80.65;;;46.22;;
29092;SDS011;16167;48.768;14.984;2022-10-17T05:24:26;84.32;;;47.30;;
29092;SDS011;16167;48.768;14.984;2022-10-17T05:26:55;69.85;;;44.60;;
29092;SDS011;16167;48.768;14.984;2022-10-17T05:29:23;73.70;;;44.88;;
29092;SDS011;16167;48.768;14.984;2022-10-17T05:31:51;78.40;;;45.80;;
29092;SDS011;16167;48.768;14.984;2022-10-17T05:34:19;79.40;;;45.75;;
29092;SDS011;16167;48.768;14.984;2022-10-17T05:36:47;70.80;;;43.30;;
29092;SDS011;16167;48.768;14.984;2022-10-17T05:39:17;73.97;;;45.20;;
29092;SDS011;16167;48.768;14.984;2022-10-17T05:41:45;82.38;;;46.72;;
29092;SDS011;16167;48.768;14.984;2022-10-17T05:44:13;80.80;;;44.00;;
29092;SDS011;16167;48.768;14.984;2022-10-17T05:46:42;82.57;;;46.88;;
29092;SDS011;16167;48.768;14.984;2022-10-17T05:49:10;70.88;;;42.50;;
29092;SDS011;16167;48.768;14.984;2022-10-17T05:51:50;79.22;;;46.35;;
29092;SDS011;16167;48.768;14.984;2022-10-17T05:54:20;83.32;;;43.08;;
29092;SDS011;16167;48.768;14.984;2022-10-17T05:56:50;72.80;;;43.15;;
29092;SDS011;16167;48.768;14.984;2022-10-17T05:59:18;76.55;;;46.05;;
29092;SDS011;16167;48.768;14.984;2022-10-17T06:01:47;70.17;;;42.10;;
29092;SDS011;16167;48.768;14.984;2022-10-17T06:04:15;72.75;;;43.13;;
29092;SDS011;16167;48.768;14.984;2022-10-17T06:06:43;68.90;;;41.80;;
29092;SDS011;16167;48.768;14.984;2022-10-17T06:09:11;82.35;;;44.33;;
29092;SDS011;16167;48.768;14.984;2022-10-17T06:11:41;74.43;;;42.80;;
29092;SDS011;16167;48.768;14.984;2022-10-17T06:14:09;72.22;;;43.85;;
29092;SDS011;16167;48.768;14.984;2022-10-17T06:16:37;79.53;;;47.40;;
29092;SDS011;16167;48.768;14.984;2022-10-17T06:19:05;92.40;;;54.50;;
29092;SDS011;16167;48.768;14.984;2022-10-17T06:21:33;92.55;;;50.05;;
29092;SDS011;16167;48.768;14.984;2022-10-17T06:24:03;66.45;;;42.90;;
29092;SDS011;16167;48.768;14.984;2022-10-17T06:26:32;72.45;;;45.25;;
29092;SDS011;16167;48.768;14.984;2022-10-17T06:29:01;68.30;;;40.88;;
29092;SDS011;16167;48.768;14.984;2022-10-17T06:31:29;85.40;;;43.97;;
29092;SDS011;16167;48.768;14.984;2022-10-17T06:33:57;64.50;;;40.65;;
29092;SDS011;16167;48.768;14.984;2022-10-17T06:36:26;80.82;;;46.55;;
29092;SDS011;16167;48.768;14.984;2022-10-17T06:38:54;69.25;;;42.13;;
29092;SDS011;16167;48.768;14.984;2022-10-17T06:41:22;87.95;;;46.13;;
29092;SDS011;16167;48.768;14.984;2022-10-17T06:43:50;73.57;;;45.33;;
29092;SDS011;16167;48.768;14.984;2022-10-17T06:46:20;79.53;;;46.38;;
29092;SDS011;16167;48.768;14.984;2022-10-17T06:48:50;73.38;;;44.67;;
29092;SDS011;16167;48.768;14.984;2022-10-17T06:51:18;78.07;;;45.53;;
29092;SDS011;16167;48.768;14.984;2022-10-17T06:53:46;80.57;;;45.83;;
29092;SDS011;16167;48.768;14.984;2022-10-17T06:56:14;85.80;;;44.90;;
29092;SDS011;16167;48.768;14.984;2022-10-17T06:58:44;93.95;;;51.13;;
29092;SDS011;16167;48.768;14.984;2022-10-17T07:01:14;75.03;;;42.35;;
29092;SDS011;16167;48.768;14.984;2022-10-17T07:03:46;86.50;;;48.83;;
29092;SDS011;16167;48.768;14.984;2022-10-17T07:06:14;78.65;;;45.67;;
29092;SDS011;16167;48.768;14.984;2022-10-17T07:08:43;81.38;;;48.25;;
29092;SDS011;16167;48.768;14.984;2022-10-17T07:11:13;69.25;;;42.50;;
29092;SDS011;16167;48.768;14.984;2022-10-17T07:13:42;82.45;;;47.90;;
29092;SDS011;16167;48.768;14.984;2022-10-17T07:16:11;85.93;;;49.50;;
29092;SDS011;16167;48.768;14.984;2022-10-17T07:18:39;89.82;;;50.63;;
29092;SDS011;16167;48.768;14.984;2022-10-17T07:21:09;82.72;;;49.30;;
29092;SDS011;16167;48.768;14.984;2022-10-17T07:23:37;80.40;;;47.40;;
29092;SDS011;16167;48.768;14.984;2022-10-17T07:26:07;82.03;;;47.95;;
29092;SDS011;16167;48.768;14.984;2022-10-17T07:28:37;68.60;;;41.85;;
29092;SDS011;16167;48.768;14.984;2022-10-17T07:31:08;68.82;;;43.05;;
29092;SDS011;16167;48.768;14.984;2022-10-17T07:33:40;72.07;;;43.38;;
29092;SDS011;16167;48.768;14.984;2022-10-17T07:36:10;72.80;;;44.07;;
29092;SDS011;16167;48.768;14.984;2022-10-17T07:38:39;63.83;;;42.63;;
29092;SDS011;16167;48.768;14.984;2022-10-17T07:41:07;58.23;;;36.57;;
29092;SDS011;16167;48.768;14.984;2022-10-17T07:43:39;64.15;;;40.97;;
29092;SDS011;16167;48.768;14.984;2022-10-17T07:46:08;62.20;;;41.13;;
29092;SDS011;16167;48.768;14.984;2022-10-17T07:48:37;66.43;;;42.65;;
29092;SDS011;16167;48.768;14.984;2022-10-17T07:51:07;70.82;;;43.10;;
29092;SDS011;16167;48.768;14.984;2022-10-17T07:53:37;70.70;;;43.30;;
29092;SDS011;16167;48.768;14.984;2022-10-17T07:56:10;65.18;;;40.60;;
29092;SDS011;16167;48.768;14.984;2022-10-17T07:58:38;64.68;;;41.05;;
29092;SDS011;16167;48.768;14.984;2022-10-17T08:01:08;71.35;;;43.03;;
29092;SDS011;16167;48.768;14.984;2022-10-17T08:03:42;74.82;;;44.25;;
29092;SDS011;16167;48.768;14.984;2022-10-17T08:06:12;69.80;;;42.20;;
29092;SDS011;16167;48.768;14.984;2022-10-17T08:08:41;70.10;;;43.70;;
29092;SDS011;16167;48.768;14.984;2022-10-17T08:11:10;59.50;;;38.37;;
29092;SDS011;16167;48.768;14.984;2022-10-17T08:13:39;64.95;;;40.13;;
29092;SDS011;16167;48.768;14.984;2022-10-17T08:16:08;66.82;;;42.22;;
29092;SDS011;16167;48.768;14.984;2022-10-17T08:18:38;59.75;;;40.40;;
29092;SDS011;16167;48.768;14.984;2022-10-17T08:21:08;64.57;;;41.08;;
29092;SDS011;16167;48.768;14.984;2022-10-17T08:23:38;61.50;;;39.95;;
29092;SDS011;16167;48.768;14.984;2022-10-17T08:26:06;67.50;;;42.40;;
29092;SDS011;16167;48.768;14.984;2022-10-17T08:28:36;58.42;;;38.88;;
29092;SDS011;16167;48.768;14.984;2022-10-17T08:31:06;63.28;;;38.63;;
29092;SDS011;16167;48.768;14.984;2022-10-17T08:33:35;65.13;;;41.50;;
29092;SDS011;16167;48.768;14.984;2022-10-17T08:38:34;57.60;;;37.28;;
29092;SDS011;16167;48.768;14.984;2022-10-17T08:41:12;58.50;;;37.92;;
29092;SDS011;16167;48.768;14.984;2022-10-17T08:43:51;55.28;;;36.67;;
29092;SDS011;16167;48.768;14.984;2022-10-17T08:46:28;61.90;;;38.33;;
29092;SDS011;16167;48.768;14.984;2022-10-17T08:48:58;53.85;;;36.67;;
29092;SDS011;16167;48.768;14.984;2022-10-17T08:51:31;62.97;;;40.47;;
29092;SDS011;16167;48.768;14.984;2022-10-17T08:54:04;59.33;;;39.10;;
29092;SDS011;16167;48.768;14.984;2022-10-17T08:56:41;69.60;;;44.47;;
29092;SDS011;16167;48.768;14.984;2022-10-17T08:59:16;65.28;;;41.05;;
29092;SDS011;16167;48.768;14.984;2022-10-17T09:01:49;60.25;;;39.38;;
29092;SDS011;16167;48.768;14.984;2022-10-17T09:04:36;61.53;;;38.80;;
29092;SDS011;16167;48.768;14.984;2022-10-17T09:07:14;62.13;;;39.33;;
29092;SDS011;16167;48.768;14.984;2022-10-17T09:09:49;65.70;;;39.38;;
29092;SDS011;16167;48.768;14.984;2022-10-17T09:12:30;65.00;;;40.28;;
29092;SDS011;16167;48.768;14.984;2022-10-17T09:15:15;56.17;;;36.22;;
29092;SDS011;16167;48.768;14.984;2022-10-17T09:18:07;57.95;;;38.35;;
29092;SDS011;16167;48.768;14.984;2022-10-17T09:20:44;58.60;;;38.05;;
29092;SDS011;16167;48.768;14.984;2022-10-17T09:23:17;58.63;;;38.70;;
29092;SDS011;16167;48.768;14.984;2022-10-17T09:25:49;62.17;;;39.08;;
29092;SDS011;16167;48.768;14.984;2022-10-17T09:28:24;58.80;;;39.35;;
29092;SDS011;16167;48.768;14.984;2022-10-17T09:30:58;60.33;;;38.30;;
29092;SDS011;16167;48.768;14.984;2022-10-17T09:33:29;60.42;;;37.60;;
29092;SDS011;16167;48.768;14.984;2022-10-17T09:36:20;55.90;;;35.17;;
29092;SDS011;16167;48.768;14.984;2022-10-17T09:38:51;57.40;;;37.42;;
29092;SDS011;16167;48.768;14.984;2022-10-17T09:41:21;55.63;;;36.53;;
29092;SDS011;16167;48.768;14.984;2022-10-17T09:44:20;52.13;;;34.97;;
29092;SDS011;16167;48.768;14.984;2022-10-17T09:47:00;52.88;;;35.83;;
29092;SDS011;16167;48.768;14.984;2022-10-17T09:49:37;52.97;;;34.20;;
29092;SDS011;16167;48.768;14.984;2022-10-17T09:52:09;53.13;;;34.92;;
29092;SDS011;16167;48.768;14.984;2022-10-17T09:54:41;51.88;;;33.92;;
29092;SDS011;16167;48.768;14.984;2022-10-17T09:57:11;47.40;;;32.90;;
29092;SDS011;16167;48.768;14.984;2022-10-17T09:59:43;50.80;;;33.35;;
29092;SDS011;16167;48.768;14.984;2022-10-17T10:02:17;53.13;;;35.13;;
29092;SDS011;16167;48.768;14.984;2022-10-17T10:04:54;57.47;;;38.75;;
29092;SDS011;16167;48.768;14.984;2022-10-17T10:07:33;59.08;;;39.92;;
29092;SDS011;16167;48.768;14.984;2022-10-17T10:10:04;54.10;;;34.75;;
29092;SDS011;16167;48.768;14.984;2022-10-17T10:12:34;53.30;;;35.45;;
29092;SDS011;16167;48.768;14.984;2022-10-17T10:17:59;46.70;;;33.80;;
29092;SDS011;16167;48.768;14.984;2022-10-17T10:20:28;52.28;;;34.47;;
29092;SDS011;16167;48.768;14.984;2022-10-17T10:23:06;49.55;;;34.08;;
29092;SDS011;16167;48.768;14.984;2022-10-17T10:28:16;54.65;;;34.80;;
29092;SDS011;16167;48.768;14.984;2022-10-17T10:30:46;50.95;;;34.38;;
29092;SDS011;16167;48.768;14.984;2022-10-17T10:33:19;53.40;;;34.70;;
29092;SDS011;16167;48.768;14.984;2022-10-17T10:35:52;51.95;;;35.03;;
29092;SDS011;16167;48.768;14.984;2022-10-17T10:38:23;51.75;;;34.03;;
29092;SDS011;16167;48.768;14.984;2022-10-17T10:40:53;54.42;;;36.53;;
29092;SDS011;16167;48.768;14.984;2022-10-17T10:43:31;56.72;;;36.40;;
29092;SDS011;16167;48.768;14.984;2022-10-17T10:46:02;57.10;;;37.58;;
29092;SDS011;16167;48.768;14.984;2022-10-17T10:48:34;56.35;;;38.30;;
29092;SDS011;16167;48.768;14.984;2022-10-17T10:51:04;60.78;;;41.28;;
29092;SDS011;16167;48.768;14.984;2022-10-17T10:53:42;56.45;;;36.38;;
29092;SDS011;16167;48.768;14.984;2022-10-17T10:56:14;51.70;;;34.92;;
29092;SDS011;16167;48.768;14.984;2022-10-17T10:58:48;51.10;;;34.70;;
29092;SDS011;16167;48.768;14.984;2022-10-17T11:01:21;52.13;;;35.80;;
29092;SDS011;16167;48.768;14.984;2022-10-17T11:04:03;54.15;;;35.65;;
29092;SDS011;16167;48.768;14.984;2022-10-17T11:06:40;53.97;;;36.50;;
29092;SDS011;16167;48.768;14.984;2022-10-17T11:09:12;50.28;;;35.33;;
29092;SDS011;16167;48.768;14.984;2022-10-17T11:11:52;56.08;;;38.17;;
29092;SDS011;16167;48.768;14.984;2022-10-17T11:14:28;51.28;;;35.67;;
29092;SDS011;16167;48.768;14.984;2022-10-17T11:17:04;52.72;;;35.72;;
29092;SDS011;16167;48.768;14.984;2022-10-17T11:19:41;51.03;;;36.15;;
29092;SDS011;16167;48.768;14.984;2022-10-17T11:22:15;47.03;;;34.33;;
29092;SDS011;16167;48.768;14.984;2022-10-17T11:24:55;46.85;;;33.55;;
29092;SDS011;16167;48.768;14.984;2022-10-17T11:27:26;51.50;;;37.08;;
29092;SDS011;16167;48.768;14.984;2022-10-17T11:29:56;50.10;;;35.15;;
29092;SDS011;16167;48.768;14.984;2022-10-17T11:32:26;50.27;;;36.33;;
29092;SDS011;16167;48.768;14.984;2022-10-17T11:35:02;47.85;;;34.40;;
29092;SDS011;16167;48.768;14.984;2022-10-17T11:37:33;51.92;;;35.38;;
29092;SDS011;16167;48.768;14.984;2022-10-17T11:40:08;50.78;;;35.47;;
29092;SDS011;16167;48.768;14.984;2022-10-17T11:42:52;50.05;;;36.20;;
29092;SDS011;16167;48.768;14.984;2022-10-17T11:45:26;50.88;;;36.53;;
29092;SDS011;16167;48.768;14.984;2022-10-17T11:47:57;50.45;;;36.78;;
29092;SDS011;16167;48.768;14.984;2022-10-17T11:50:32;52.55;;;37.17;;
29092;SDS011;16167;48.768;14.984;2022-10-17T11:53:22;51.38;;;35.90;;
29092;SDS011;16167;48.768;14.984;2022-10-17T11:55:53;51.92;;;36.85;;
29092;SDS011;16167;48.768;14.984;2022-10-17T11:58:27;54.47;;;37.67;;
29092;SDS011;16167;48.768;14.984;2022-10-17T12:01:06;48.25;;;36.70;;
29092;SDS011;16167;48.768;14.984;2022-10-17T12:03:55;49.53;;;36.10;;
29092;SDS011;16167;48.768;14.984;2022-10-17T12:06:38;45.88;;;35.80;;
29092;SDS011;16167;48.768;14.984;2022-10-17T12:09:17;48.13;;;36.00;;
29092;SDS011;16167;48.768;14.984;2022-10-17T12:11:52;48.65;;;35.65;;
29092;SDS011;16167;48.768;14.984;2022-10-17T12:17:22;48.83;;;36.42;;
29092;SDS011;16167;48.768;14.984;2022-10-17T12:22:55;44.35;;;33.88;;
29092;SDS011;16167;48.768;14.984;2022-10-17T12:25:27;44.72;;;33.55;;
29092;SDS011;16167;48.768;14.984;2022-10-17T12:28:12;40.88;;;32.58;;
29092;SDS011;16167;48.768;14.984;2022-10-17T12:30:48;42.67;;;34.13;;
29092;SDS011;16167;48.768;14.984;2022-10-17T12:33:19;40.85;;;32.15;;
29092;SDS011;16167;48.768;14.984;2022-10-17T12:35:49;43.55;;;31.63;;
29092;SDS011;16167;48.768;14.984;2022-10-17T12:38:39;35.95;;;31.02;;
29092;SDS011;16167;48.768;14.984;2022-10-17T12:41:13;41.85;;;31.15;;
29092;SDS011;16167;48.768;14.984;2022-10-17T12:52:20;36.28;;;29.27;;
29092;SDS011;16167;48.768;14.984;2022-10-17T12:57:45;35.08;;;28.55;;
29092;SDS011;16167;48.768;14.984;2022-10-17T13:00:21;32.58;;;28.20;;
29092;SDS011;16167;48.768;14.984;2022-10-17T13:02:59;30.90;;;27.25;;
29092;SDS011;16167;48.768;14.984;2022-10-17T13:05:31;35.42;;;28.15;;
29092;SDS011;16167;48.768;14.984;2022-10-17T13:08:02;30.58;;;27.27;;
29092;SDS011;16167;48.768;14.984;2022-10-17T13:10:35;31.00;;;27.15;;
29092;SDS011;16167;48.768;14.984;2022-10-17T13:13:11;27.55;;;24.35;;
29092;SDS011;16167;48.768;14.984;2022-10-17T13:15:44;31.52;;;25.23;;
29092;SDS011;16167;48.768;14.984;2022-10-17T13:18:16;32.45;;;25.15;;
29092;SDS011;16167;48.768;14.984;2022-10-17T13:20:53;31.80;;;25.88;;
29092;SDS011;16167;48.768;14.984;2022-10-17T13:23:23;31.13;;;25.95;;
29092;SDS011;16167;48.768;14.984;2022-10-17T13:26:09;31.77;;;26.85;;
29092;SDS011;16167;48.768;14.984;2022-10-17T13:28:41;30.25;;;23.85;;
29092;SDS011;16167;48.768;14.984;2022-10-17T13:31:28;29.48;;;23.77;;
29092;SDS011;16167;48.768;14.984;2022-10-17T13:33:59;27.92;;;24.02;;
29092;SDS011;16167;48.768;14.984;2022-10-17T13:36:28;25.42;;;22.73;;
29092;SDS011;16167;48.768;14.984;2022-10-17T13:38:58;26.80;;;23.65;;
29092;SDS011;16167;48.768;14.984;2022-10-17T13:41:36;27.67;;;23.27;;
29092;SDS011;16167;48.768;14.984;2022-10-17T13:44:06;28.40;;;22.65;;
29092;SDS011;16167;48.768;14.984;2022-10-17T13:46:40;26.35;;;21.25;;
29092;SDS011;16167;48.768;14.984;2022-10-17T13:49:10;25.83;;;22.83;;
29092;SDS011;16167;48.768;14.984;2022-10-17T13:51:44;29.90;;;23.27;;
29092;SDS011;16167;48.768;14.984;2022-10-17T13:54:23;25.77;;;21.50;;
29092;SDS011;16167;48.768;14.984;2022-10-17T13:57:15;27.83;;;22.45;;
29092;SDS011;16167;48.768;14.984;2022-10-17T13:59:47;30.20;;;21.85;;
29092;SDS011;16167;48.768;14.984;2022-10-17T14:02:18;28.08;;;24.10;;
29092;SDS011;16167;48.768;14.984;2022-10-17T14:04:58;30.60;;;24.67;;
29092;SDS011;16167;48.768;14.984;2022-10-17T14:07:44;27.48;;;22.85;;
29092;SDS011;16167;48.768;14.984;2022-10-17T14:10:36;30.60;;;25.30;;
29092;SDS011;16167;48.768;14.984;2022-10-17T14:13:16;30.33;;;24.98;;
29092;SDS011;16167;48.768;14.984;2022-10-17T14:15:47;30.52;;;25.75;;
29092;SDS011;16167;48.768;14.984;2022-10-17T14:18:16;30.48;;;25.20;;
29092;SDS011;16167;48.768;14.984;2022-10-17T14:20:47;34.28;;;25.73;;
29092;SDS011;16167;48.768;14.984;2022-10-17T14:26:06;37.47;;;27.23;;
29092;SDS011;16167;48.768;14.984;2022-10-17T14:28:40;34.17;;;26.83;;
29092;SDS011;16167;48.768;14.984;2022-10-17T14:31:10;33.85;;;26.52;;
29092;SDS011;16167;48.768;14.984;2022-10-17T14:33:51;34.03;;;28.30;;
29092;SDS011;16167;48.768;14.984;2022-10-17T14:36:20;36.75;;;26.95;;
29092;SDS011;16167;48.768;14.984;2022-10-17T14:38:57;34.08;;;27.02;;
29092;SDS011;16167;48.768;14.984;2022-10-17T14:41:27;35.70;;;27.98;;
29092;SDS011;16167;48.768;14.984;2022-10-17T14:44:25;38.08;;;26.75;;
29092;SDS011;16167;48.768;14.984;2022-10-17T14:46:57;34.67;;;26.08;;
29092;SDS011;16167;48.768;14.984;2022-10-17T14:52:10;36.53;;;26.75;;
29092;SDS011;16167;48.768;14.984;2022-10-17T14:54:53;35.33;;;28.10;;
29092;SDS011;16167;48.768;14.984;2022-10-17T14:57:22;34.88;;;26.77;;
29092;SDS011;16167;48.768;14.984;2022-10-17T14:59:54;42.80;;;29.02;;
29092;SDS011;16167;48.768;14.984;2022-10-17T15:02:23;39.95;;;29.45;;
29092;SDS011;16167;48.768;14.984;2022-10-17T15:04:52;37.55;;;27.98;;
29092;SDS011;16167;48.768;14.984;2022-10-17T15:07:21;37.83;;;27.98;;
29092;SDS011;16167;48.768;14.984;2022-10-17T15:09:50;32.95;;;26.25;;
29092;SDS011;16167;48.768;14.984;2022-10-17T15:12:20;36.03;;;28.13;;
29092;SDS011;16167;48.768;14.984;2022-10-17T15:14:50;34.47;;;26.67;;
29092;SDS011;16167;48.768;14.984;2022-10-17T15:17:21;33.47;;;26.80;;
29092;SDS011;16167;48.768;14.984;2022-10-17T15:19:51;35.80;;;29.83;;
29092;SDS011;16167;48.768;14.984;2022-10-17T15:22:19;41.67;;;29.80;;